Time,TemperatureF,DewpointF,PressureIn,WindDirection,WindDirectionDegrees,WindSpeedMPH,WindSpeedGustMPH,Humidity,HourlyPrecipIn,Conditions,Clouds,dailyrainin,SoftwareType,DateUTC
2013-01-31 00:01:00,25.5,17.7,29.95,North,0,0.0,0.0,72,0.00,,,0.00,WUHU21623XXSP,2013-01-31 06:01:00,
2013-01-31 00:06:00,25.5,17.7,29.95,North,0,0.0,0.0,72,0.00,,,0.00,WUHU21623XXSP,2013-01-31 06:06:00,
2013-01-31 00:11:00,25.7,17.9,29.95,North,0,0.0,0.0,72,0.00,,,0.00,WUHU21623XXSP,2013-01-31 06:11:00,
2013-01-31 00:16:00,25.7,17.9,29.95,North,0,0.0,0.0,72,0.00,,,0.00,WUHU21623XXSP,2013-01-31 06:16:00,
2013-01-31 00:21:00,25.7,17.9,29.96,North,0,0.0,0.0,72,0.00,,,0.00,WUHU21623XXSP,2013-01-31 06:21:00,
2013-01-31 00:26:00,25.7,18.2,29.96,North,0,0.0,0.0,73,0.00,,,0.00,WUHU21623XXSP,2013-01-31 06:26:00,
2013-01-31 00:31:00,25.7,18.2,29.96,North,0,0.0,0.0,73,0.00,,,0.00,WUHU21623XXSP,2013-01-31 06:31:00,
2013-01-31 00:36:00,25.7,18.5,29.96,North,0,0.0,0.0,74,0.00,,,0.00,WUHU21623XXSP,2013-01-31 06:36:00,
2013-01-31 00:41:00,25.5,18.3,29.95,North,0,0.0,0.0,74,0.00,,,0.00,WUHU21623XXSP,2013-01-31 06:41:00,
2013-01-31 00:46:00,25.5,18.6,29.95,North,0,0.0,0.0,75,0.00,,,0.00,WUHU21623XXSP,2013-01-31 06:46:00,
2013-01-31 00:51:00,25.5,18.6,29.96,North,0,0.0,0.0,75,0.00,,,0.00,WUHU21623XXSP,2013-01-31 06:51:00,
2013-01-31 00:56:00,25.5,18.6,29.95,North,0,0.0,0.0,75,0.00,,,0.00,WUHU21623XXSP,2013-01-31 06:56:00,
2013-01-31 01:01:00,25.5,18.9,29.96,North,0,0.0,0.0,76,0.00,,,0.00,WUHU21623XXSP,2013-01-31 07:01:00,
2013-01-31 01:06:00,25.5,18.9,29.95,North,0,0.0,0.0,76,0.00,,,0.00,WUHU21623XXSP,2013-01-31 07:06:00,
2013-01-31 01:11:00,25.5,18.9,29.95,North,0,0.0,0.0,76,0.00,,,0.00,WUHU21623XXSP,2013-01-31 07:11:00,
2013-01-31 01:16:00,25.5,19.3,29.96,North,0,0.0,0.0,77,0.00,,,0.00,WUHU21623XXSP,2013-01-31 07:16:00,
2013-01-31 01:21:00,25.3,19.1,29.96,North,0,0.0,0.0,77,0.00,,,0.00,WUHU21623XXSP,2013-01-31 07:21:00,
2013-01-31 01:26:00,25.3,19.1,29.96,North,0,0.0,0.0,77,0.00,,,0.00,WUHU21623XXSP,2013-01-31 07:26:00,
2013-01-31 01:31:00,25.3,19.1,29.96,North,0,0.0,0.0,77,0.00,,,0.00,WUHU21623XXSP,2013-01-31 07:31:00,
2013-01-31 01:36:00,25.3,19.1,29.96,North,0,0.0,0.0,77,0.00,,,0.00,WUHU21623XXSP,2013-01-31 07:36:00,
2013-01-31 01:41:00,25.3,19.1,29.96,North,0,0.0,0.0,76,0.00,,,0.00,WUHU21623XXSP,2013-01-31 07:41:00,
2013-01-31 01:46:00,25.3,18.8,29.96,North,0,0.0,0.0,76,0.00,,,0.00,WUHU21623XXSP,2013-01-31 07:46:00,
2013-01-31 01:52:00,25.3,18.8,29.97,North,0,0.0,0.0,76,0.00,,,0.00,WUHU21623XXSP,2013-01-31 07:52:00,
2013-01-31 01:57:00,25.3,18.8,29.96,North,0,0.0,0.0,76,0.00,,,0.00,WUHU21623XXSP,2013-01-31 07:57:00,
2013-01-31 02:02:00,25.3,18.5,29.96,North,0,0.0,0.0,75,0.00,,,0.00,WUHU21623XXSP,2013-01-31 08:02:00,
2013-01-31 02:07:00,25.3,18.5,29.97,North,0,0.0,0.0,75,0.00,,,0.00,WUHU21623XXSP,2013-01-31 08:07:00,
2013-01-31 02:12:00,25.5,18.6,29.97,North,0,0.0,0.0,75,0.00,,,0.00,WUHU21623XXSP,2013-01-31 08:12:00,
2013-01-31 02:17:00,25.3,18.1,29.96,North,0,0.0,0.0,74,0.00,,,0.00,WUHU21623XXSP,2013-01-31 08:17:00,
2013-01-31 02:22:00,25.3,18.1,29.96,North,0,0.0,0.0,74,0.00,,,0.00,WUHU21623XXSP,2013-01-31 08:22:00,
2013-01-31 02:27:00,25.2,18.0,29.97,North,0,0.0,0.0,74,0.00,,,0.00,WUHU21623XXSP,2013-01-31 08:27:00,
2013-01-31 02:32:00,25.2,17.7,29.96,North,0,0.0,0.0,73,0.00,,,0.00,WUHU21623XXSP,2013-01-31 08:32:00,
2013-01-31 02:37:00,25.0,17.5,29.96,North,0,0.0,0.0,73,0.00,,,0.00,WUHU21623XXSP,2013-01-31 08:37:00,
2013-01-31 02:42:00,25.0,17.5,29.97,North,0,0.0,0.0,73,0.00,,,0.00,WUHU21623XXSP,2013-01-31 08:42:00,
2013-01-31 02:47:00,25.0,17.5,29.96,North,0,0.0,0.0,73,0.00,,,0.00,WUHU21623XXSP,2013-01-31 08:47:00,
2013-01-31 02:52:00,25.0,17.3,29.96,North,0,0.0,0.0,73,0.00,,,0.00,WUHU21623XXSP,2013-01-31 08:52:00,
2013-01-31 02:57:00,24.6,17.1,29.96,North,0,0.0,0.0,73,0.00,,,0.00,WUHU21623XXSP,2013-01-31 08:57:00,
2013-01-31 03:02:00,24.6,17.1,29.96,North,0,0.0,0.0,73,0.00,,,0.00,WUHU21623XXSP,2013-01-31 09:02:00,
2013-01-31 03:07:00,24.6,17.1,29.96,North,0,0.0,0.0,73,0.00,,,0.00,WUHU21623XXSP,2013-01-31 09:07:00,
2013-01-31 03:12:00,24.6,17.1,29.95,North,0,0.0,0.0,73,0.00,,,0.00,WUHU21623XXSP,2013-01-31 09:12:00,
2013-01-31 03:17:00,24.6,17.1,29.95,North,0,0.0,0.0,73,0.00,,,0.00,WUHU21623XXSP,2013-01-31 09:17:00,
2013-01-31 03:22:00,24.6,17.1,29.96,North,0,0.0,0.0,73,0.00,,,0.00,WUHU21623XXSP,2013-01-31 09:22:00,
2013-01-31 03:27:00,24.8,17.3,29.96,North,0,0.0,0.0,73,0.00,,,0.00,WUHU21623XXSP,2013-01-31 09:27:00,
2013-01-31 03:32:00,25.0,17.8,29.95,North,0,0.0,0.0,74,0.00,,,0.00,WUHU21623XXSP,2013-01-31 09:32:00,
2013-01-31 03:37:00,25.0,17.8,29.95,North,0,0.0,0.0,74,0.00,,,0.00,WUHU21623XXSP,2013-01-31 09:37:00,
2013-01-31 03:42:00,25.0,17.5,29.96,North,0,0.0,0.0,73,0.00,,,0.00,WUHU21623XXSP,2013-01-31 09:42:00,
2013-01-31 03:47:00,25.0,17.5,29.95,North,0,0.0,0.0,73,0.00,,,0.00,WUHU21623XXSP,2013-01-31 09:47:00,
2013-01-31 03:52:00,25.0,17.5,29.95,North,0,0.0,0.0,73,0.00,,,0.00,WUHU21623XXSP,2013-01-31 09:52:00,
2013-01-31 03:57:00,25.0,17.5,29.95,North,0,0.0,0.0,73,0.00,,,0.00,WUHU21623XXSP,2013-01-31 09:57:00,
2013-01-31 04:02:00,25.0,17.5,29.95,North,0,0.0,0.0,73,0.00,,,0.00,WUHU21623XXSP,2013-01-31 10:02:00,
2013-01-31 04:07:00,25.0,17.5,29.96,North,0,0.0,0.0,73,0.00,,,0.00,WUHU21623XXSP,2013-01-31 10:07:00,
2013-01-31 04:12:00,25.0,17.5,29.95,North,0,0.0,0.0,73,0.00,,,0.00,WUHU21623XXSP,2013-01-31 10:12:00,
2013-01-31 04:17:00,25.0,17.5,29.95,North,0,0.0,0.0,73,0.00,,,0.00,WUHU21623XXSP,2013-01-31 10:17:00,
2013-01-31 04:22:00,25.0,17.5,29.95,North,0,0.0,0.0,73,0.00,,,0.00,WUHU21623XXSP,2013-01-31 10:22:00,
2013-01-31 04:27:00,25.0,17.5,29.95,North,0,0.0,0.0,73,0.00,,,0.00,WUHU21623XXSP,2013-01-31 10:27:00,
2013-01-31 04:32:00,25.0,17.5,29.95,North,0,0.0,0.0,73,0.00,,,0.00,WUHU21623XXSP,2013-01-31 10:32:00,
2013-01-31 04:37:00,25.0,17.5,29.95,North,0,0.0,0.0,73,0.00,,,0.00,WUHU21623XXSP,2013-01-31 10:37:00,
2013-01-31 04:42:00,25.0,17.5,29.96,North,0,0.0,0.0,73,0.00,,,0.00,WUHU21623XXSP,2013-01-31 10:42:00,
2013-01-31 04:47:00,25.0,17.5,29.95,North,0,0.0,0.0,74,0.00,,,0.00,WUHU21623XXSP,2013-01-31 10:47:00,
2013-01-31 04:52:00,25.0,17.5,29.95,North,0,0.0,0.0,73,0.00,,,0.00,WUHU21623XXSP,2013-01-31 10:52:00,
2013-01-31 04:57:00,25.0,17.5,29.96,North,0,0.0,0.0,73,0.00,,,0.00,WUHU21623XXSP,2013-01-31 10:57:00,
2013-01-31 05:02:00,25.0,17.5,29.95,North,0,0.0,0.0,73,0.00,,,0.00,WUHU21623XXSP,2013-01-31 11:02:00,
2013-01-31 05:07:00,25.0,17.8,29.95,North,0,0.0,0.0,74,0.00,,,0.00,WUHU21623XXSP,2013-01-31 11:07:00,
2013-01-31 05:12:00,25.0,17.8,29.95,North,0,0.0,0.0,74,0.00,,,0.00,WUHU21623XXSP,2013-01-31 11:12:00,
2013-01-31 05:17:00,25.0,17.8,29.95,North,0,0.0,0.0,74,0.00,,,0.00,WUHU21623XXSP,2013-01-31 11:17:00,
2013-01-31 05:22:00,25.2,18.0,29.95,North,0,0.0,0.0,74,0.00,,,0.00,WUHU21623XXSP,2013-01-31 11:22:00,
2013-01-31 05:27:00,25.0,17.8,29.95,North,0,0.0,0.0,74,0.00,,,0.00,WUHU21623XXSP,2013-01-31 11:27:00,
2013-01-31 05:32:00,25.2,18.0,29.96,North,0,0.0,0.0,74,0.00,,,0.00,WUHU21623XXSP,2013-01-31 11:32:00,
2013-01-31 05:37:00,25.2,18.0,29.96,North,0,0.0,0.0,74,0.00,,,0.00,WUHU21623XXSP,2013-01-31 11:37:00,
2013-01-31 05:42:00,25.2,18.0,29.96,North,0,0.0,0.0,74,0.00,,,0.00,WUHU21623XXSP,2013-01-31 11:42:00,
2013-01-31 05:47:00,25.2,18.0,29.96,North,0,0.0,0.0,74,0.00,,,0.00,WUHU21623XXSP,2013-01-31 11:47:00,
2013-01-31 05:52:00,25.3,18.1,29.96,North,0,0.0,0.0,74,0.00,,,0.00,WUHU21623XXSP,2013-01-31 11:52:00,
2013-01-31 05:57:00,25.3,18.1,29.96,North,0,0.0,0.0,74,0.00,,,0.00,WUHU21623XXSP,2013-01-31 11:57:00,
2013-01-31 06:02:00,25.3,18.1,29.96,North,0,0.0,0.0,74,0.00,,,0.00,WUHU21623XXSP,2013-01-31 12:02:00,
2013-01-31 06:07:00,25.3,18.5,29.96,North,0,0.0,0.0,75,0.00,,,0.00,WUHU21623XXSP,2013-01-31 12:07:00,
2013-01-31 06:12:00,25.3,18.5,29.96,North,0,0.0,0.0,75,0.00,,,0.00,WUHU21623XXSP,2013-01-31 12:12:00,
2013-01-31 06:17:00,25.3,18.5,29.96,North,0,0.0,0.0,75,0.00,,,0.00,WUHU21623XXSP,2013-01-31 12:17:00,
2013-01-31 06:22:00,25.3,18.5,29.96,North,0,0.0,0.0,75,0.00,,,0.00,WUHU21623XXSP,2013-01-31 12:22:00,
2013-01-31 06:27:00,25.3,18.5,29.96,North,0,0.0,0.0,75,0.00,,,0.00,WUHU21623XXSP,2013-01-31 12:27:00,
2013-01-31 06:32:00,25.3,18.5,29.96,North,0,0.0,0.0,75,0.00,,,0.00,WUHU21623XXSP,2013-01-31 12:32:00,
2013-01-31 06:37:00,25.3,18.5,29.96,North,0,0.0,0.0,75,0.00,,,0.00,WUHU21623XXSP,2013-01-31 12:37:00,
2013-01-31 06:42:00,25.3,18.5,29.96,North,0,0.0,0.0,75,0.00,,,0.00,WUHU21623XXSP,2013-01-31 12:42:00,
2013-01-31 06:47:00,25.2,18.3,29.97,North,0,0.0,0.0,75,0.00,,,0.00,WUHU21623XXSP,2013-01-31 12:47:00,
2013-01-31 06:52:00,25.2,18.3,29.97,North,0,0.0,0.0,75,0.00,,,0.00,WUHU21623XXSP,2013-01-31 12:52:00,
2013-01-31 06:57:00,25.2,18.3,29.97,North,0,0.0,0.0,75,0.00,,,0.00,WUHU21623XXSP,2013-01-31 12:57:00,
2013-01-31 07:02:00,25.2,18.3,29.97,North,0,0.0,0.0,75,0.00,,,0.00,WUHU21623XXSP,2013-01-31 13:02:00,
2013-01-31 07:07:00,25.2,18.3,29.97,North,0,0.0,0.0,75,0.00,,,0.00,WUHU21623XXSP,2013-01-31 13:07:00,
2013-01-31 07:12:00,25.2,18.3,29.97,North,0,0.0,0.0,75,0.00,,,0.00,WUHU21623XXSP,2013-01-31 13:12:00,
2013-01-31 07:17:00,25.2,18.3,29.98,North,0,0.0,0.0,75,0.00,,,0.00,WUHU21623XXSP,2013-01-31 13:17:00,
2013-01-31 07:22:00,25.2,18.3,29.98,North,0,0.0,0.0,75,0.00,,,0.00,WUHU21623XXSP,2013-01-31 13:22:00,
2013-01-31 07:27:00,25.3,18.5,29.98,North,0,0.0,0.0,75,0.00,,,0.00,WUHU21623XXSP,2013-01-31 13:27:00,
2013-01-31 07:32:00,25.3,18.5,29.98,North,0,0.0,0.0,75,0.00,,,0.00,WUHU21623XXSP,2013-01-31 13:32:00,
2013-01-31 07:37:00,25.3,18.8,29.99,North,0,0.0,0.0,76,0.00,,,0.00,WUHU21623XXSP,2013-01-31 13:37:00,
2013-01-31 07:42:00,25.5,18.9,29.99,North,0,0.0,0.0,76,0.00,,,0.00,WUHU21623XXSP,2013-01-31 13:42:00,
2013-01-31 07:47:00,25.5,18.9,30.00,North,0,0.0,0.0,76,0.00,,,0.00,WUHU21623XXSP,2013-01-31 13:47:00,
2013-01-31 07:52:00,25.7,19.1,29.99,North,0,0.0,0.0,76,0.00,,,0.00,WUHU21623XXSP,2013-01-31 13:52:00,
2013-01-31 07:57:00,25.9,19.3,29.99,North,0,0.0,0.0,76,0.00,,,0.00,WUHU21623XXSP,2013-01-31 13:57:00,
2013-01-31 08:02:00,25.9,19.3,29.99,North,0,0.0,0.0,76,0.00,,,0.00,WUHU21623XXSP,2013-01-31 14:02:00,
2013-01-31 08:07:00,26.1,19.3,30.00,North,0,0.0,0.0,76,0.00,,,0.00,WUHU21623XXSP,2013-01-31 14:07:00,
2013-01-31 08:12:00,26.2,19.6,30.00,North,0,0.0,0.0,76,0.00,,,0.00,WUHU21623XXSP,2013-01-31 14:12:00,
2013-01-31 08:17:00,26.2,19.3,30.01,North,0,0.0,0.0,75,0.00,,,0.00,WUHU21623XXSP,2013-01-31 14:17:00,
2013-01-31 08:22:00,26.2,19.3,30.01,North,0,0.0,0.0,75,0.00,,,0.00,WUHU21623XXSP,2013-01-31 14:22:00,
2013-01-31 08:27:00,26.4,19.5,30.01,North,0,0.0,0.0,75,0.00,,,0.00,WUHU21623XXSP,2013-01-31 14:27:00,
2013-01-31 08:32:00,26.4,19.5,30.01,North,0,0.0,0.0,75,0.00,,,0.00,WUHU21623XXSP,2013-01-31 14:32:00,
2013-01-31 08:37:00,26.4,19.2,30.02,North,0,0.0,0.0,74,0.00,,,0.00,WUHU21623XXSP,2013-01-31 14:37:00,
2013-01-31 08:42:00,26.6,19.4,30.02,North,0,0.0,0.0,74,0.00,,,0.00,WUHU21623XXSP,2013-01-31 14:42:00,
2013-01-31 08:47:00,26.8,19.2,30.02,North,0,0.0,0.0,73,0.00,,,0.00,WUHU21623XXSP,2013-01-31 14:47:00,
2013-01-31 08:52:00,26.8,19.2,30.03,North,0,0.0,0.0,73,0.00,,,0.00,WUHU21623XXSP,2013-01-31 14:52:00,
2013-01-31 08:57:00,26.8,19.2,30.03,North,0,0.0,0.0,73,0.00,,,0.00,WUHU21623XXSP,2013-01-31 14:57:00,
2013-01-31 09:02:00,26.8,19.2,30.03,North,0,0.0,0.0,73,0.00,,,0.00,WUHU21623XXSP,2013-01-31 15:02:00,
2013-01-31 09:07:00,26.8,19.2,30.03,North,0,0.0,0.0,73,0.00,,,0.00,WUHU21623XXSP,2013-01-31 15:07:00,
2013-01-31 09:12:00,27.1,19.6,30.03,North,0,0.0,0.0,73,0.00,,,0.00,WUHU21623XXSP,2013-01-31 15:12:00,
2013-01-31 09:17:00,27.3,19.8,30.04,North,0,0.0,0.0,73,0.00,,,0.00,WUHU21623XXSP,2013-01-31 15:17:00,
2013-01-31 09:22:00,27.7,20.1,30.04,North,0,0.0,0.0,73,0.00,,,0.00,WUHU21623XXSP,2013-01-31 15:22:00,
2013-01-31 09:27:00,28.0,19.9,30.04,North,0,0.0,0.0,71,0.00,,,0.00,WUHU21623XXSP,2013-01-31 15:27:00,
2013-01-31 09:32:00,27.7,19.9,30.04,North,0,0.0,0.0,71,0.00,,,0.00,WUHU21623XXSP,2013-01-31 15:32:00,
2013-01-31 09:37:00,28.0,19.6,30.05,North,0,0.0,0.0,70,0.00,,,0.00,WUHU21623XXSP,2013-01-31 15:37:00,
2013-01-31 09:42:00,28.0,19.6,30.05,North,0,0.0,0.0,70,0.00,,,0.00,WUHU21623XXSP,2013-01-31 15:42:00,
2013-01-31 09:47:00,28.2,19.8,30.05,North,0,0.0,0.0,70,0.00,,,0.00,WUHU21623XXSP,2013-01-31 15:47:00,
2013-01-31 09:52:00,28.6,20.1,30.05,North,0,0.0,0.0,70,0.00,,,0.00,WUHU21623XXSP,2013-01-31 15:52:00,
2013-01-31 09:57:00,28.8,20.3,30.05,North,0,0.0,0.0,70,0.00,,,0.00,WUHU21623XXSP,2013-01-31 15:57:00,
2013-01-31 10:02:00,28.9,20.4,30.05,North,0,0.0,0.0,70,0.00,,,0.00,WUHU21623XXSP,2013-01-31 16:02:00,
2013-01-31 10:07:00,29.1,19.9,30.05,North,0,0.0,0.0,68,0.00,,,0.00,WUHU21623XXSP,2013-01-31 16:07:00,
2013-01-31 10:12:00,29.1,19.9,30.05,North,0,0.0,0.0,68,0.00,,,0.00,WUHU21623XXSP,2013-01-31 16:12:00,
2013-01-31 10:17:00,29.5,20.2,30.05,North,0,0.0,0.0,68,0.00,,,0.00,WUHU21623XXSP,2013-01-31 16:17:00,
2013-01-31 10:22:00,30.0,20.3,30.05,North,0,0.0,0.0,67,0.00,,,0.00,WUHU21623XXSP,2013-01-31 16:22:00,
2013-01-31 10:27:00,30.2,20.1,30.05,North,0,0.0,0.0,66,0.00,,,0.00,WUHU21623XXSP,2013-01-31 16:27:00,
2013-01-31 10:32:00,30.4,20.1,30.06,North,0,0.0,0.0,66,0.00,,,0.00,WUHU21623XXSP,2013-01-31 16:32:00,
2013-01-31 10:37:00,30.2,19.8,30.06,North,0,0.0,0.0,65,0.00,,,0.00,WUHU21623XXSP,2013-01-31 16:37:00,
2013-01-31 10:42:00,30.0,19.2,30.06,North,0,0.0,0.0,64,0.00,,,0.00,WUHU21623XXSP,2013-01-31 16:42:00,
2013-01-31 10:47:00,30.2,19.4,30.06,North,0,0.0,0.0,64,0.00,,,0.00,WUHU21623XXSP,2013-01-31 16:47:00,
2013-01-31 10:52:00,30.6,20.1,30.06,North,0,0.0,0.0,65,0.00,,,0.00,WUHU21623XXSP,2013-01-31 16:52:00,
2013-01-31 10:58:00,30.7,19.9,30.06,North,0,0.0,0.0,64,0.00,,,0.00,WUHU21623XXSP,2013-01-31 16:58:00,
2013-01-31 11:03:00,30.7,19.9,30.06,North,0,0.0,0.0,64,0.00,,,0.00,WUHU21623XXSP,2013-01-31 17:03:00,
2013-01-31 11:08:00,30.7,19.9,30.07,North,0,0.0,0.0,64,0.00,,,0.00,WUHU21623XXSP,2013-01-31 17:08:00,
2013-01-31 11:13:00,30.6,19.4,30.07,North,0,0.0,0.0,63,0.00,,,0.00,WUHU21623XXSP,2013-01-31 17:13:00,
2013-01-31 11:18:00,30.0,18.9,30.07,North,0,0.0,0.0,63,0.00,,,0.00,WUHU21623XXSP,2013-01-31 17:18:00,
2013-01-31 11:23:00,29.7,18.6,30.07,North,0,0.0,0.0,63,0.00,,,0.00,WUHU21623XXSP,2013-01-31 17:23:00,
2013-01-31 11:28:00,29.5,18.0,30.07,North,0,0.0,0.0,62,0.00,,,0.00,WUHU21623XXSP,2013-01-31 17:28:00,
2013-01-31 11:33:00,29.3,17.5,30.08,North,0,0.0,0.0,61,0.00,,,0.00,WUHU21623XXSP,2013-01-31 17:33:00,
2013-01-31 11:38:00,29.1,17.0,30.07,North,0,0.0,0.0,60,0.00,,,0.00,WUHU21623XXSP,2013-01-31 17:38:00,
2013-01-31 11:43:00,29.1,17.0,30.07,North,0,0.0,0.0,60,0.00,,,0.00,WUHU21623XXSP,2013-01-31 17:43:00,
2013-01-31 11:48:00,29.1,16.6,30.07,North,0,0.0,0.0,59,0.00,,,0.00,WUHU21623XXSP,2013-01-31 17:48:00,
2013-01-31 11:53:00,28.9,16.0,30.07,North,0,0.0,0.0,58,0.00,,,0.00,WUHU21623XXSP,2013-01-31 17:53:00,
2013-01-31 11:58:00,28.8,15.8,30.07,North,0,0.0,0.0,58,0.00,,,0.00,WUHU21623XXSP,2013-01-31 17:58:00,
2013-01-31 12:03:00,29.1,16.6,30.07,North,0,0.0,0.0,59,0.00,,,0.00,WUHU21623XXSP,2013-01-31 18:03:00,
2013-01-31 12:08:00,29.5,16.9,30.07,North,0,0.0,0.0,59,0.00,,,0.00,WUHU21623XXSP,2013-01-31 18:08:00,
2013-01-31 12:13:00,29.3,16.3,30.07,North,0,0.0,0.0,58,0.00,,,0.00,WUHU21623XXSP,2013-01-31 18:13:00,
2013-01-31 12:18:00,28.9,16.0,30.07,North,0,0.0,0.0,58,0.00,,,0.00,WUHU21623XXSP,2013-01-31 18:18:00,
2013-01-31 12:23:00,28.8,15.8,30.07,North,0,0.0,0.0,58,0.00,,,0.00,WUHU21623XXSP,2013-01-31 18:23:00,
2013-01-31 12:28:00,28.6,15.7,30.07,North,0,0.0,0.0,58,0.00,,,0.00,WUHU21623XXSP,2013-01-31 18:28:00,
2013-01-31 12:33:00,28.2,15.3,30.07,North,0,0.0,0.0,58,0.00,,,0.00,WUHU21623XXSP,2013-01-31 18:33:00,
2013-01-31 12:38:00,28.2,15.3,30.07,North,0,0.0,0.0,58,0.00,,,0.00,WUHU21623XXSP,2013-01-31 18:38:00,
2013-01-31 12:43:00,28.0,15.6,30.07,North,0,0.0,0.0,59,0.00,,,0.00,WUHU21623XXSP,2013-01-31 18:43:00,
2013-01-31 12:48:00,28.0,15.6,30.07,North,0,0.0,0.0,59,0.00,,,0.00,WUHU21623XXSP,2013-01-31 18:48:00,
2013-01-31 12:53:00,28.0,15.6,30.07,North,0,0.0,0.0,59,0.00,,,0.00,WUHU21623XXSP,2013-01-31 18:53:00,
2013-01-31 12:58:00,27.7,14.8,30.07,North,0,0.0,0.0,58,0.00,,,0.00,WUHU21623XXSP,2013-01-31 18:58:00,
2013-01-31 13:03:00,27.3,14.4,30.07,North,0,0.0,0.0,58,0.00,,,0.00,WUHU21623XXSP,2013-01-31 19:03:00,
2013-01-31 13:08:00,27.1,14.3,30.08,North,0,0.0,0.0,58,0.00,,,0.00,WUHU21623XXSP,2013-01-31 19:08:00,
2013-01-31 13:13:00,27.0,14.1,30.08,North,0,0.0,0.0,58,0.00,,,0.00,WUHU21623XXSP,2013-01-31 19:13:00,
2013-01-31 13:18:00,26.2,13.4,30.09,North,0,0.0,0.0,58,0.00,,,0.00,WUHU21623XXSP,2013-01-31 19:18:00,
2013-01-31 13:23:00,26.2,13.8,30.09,North,0,0.0,0.0,59,0.00,,,0.00,WUHU21623XXSP,2013-01-31 19:23:00,
2013-01-31 13:28:00,26.2,13.8,30.09,North,0,0.0,0.0,59,0.00,,,0.00,WUHU21623XXSP,2013-01-31 19:28:00,
2013-01-31 13:33:00,25.7,13.3,30.10,North,0,0.0,0.0,59,0.00,,,0.00,WUHU21623XXSP,2013-01-31 19:33:00,
2013-01-31 13:38:00,25.3,12.6,30.10,North,0,0.0,0.0,58,0.00,,,0.00,WUHU21623XXSP,2013-01-31 19:38:00,
2013-01-31 13:43:00,25.0,11.8,30.10,North,0,0.0,0.0,57,0.00,,,0.00,WUHU21623XXSP,2013-01-31 19:43:00,
2013-01-31 13:48:00,24.6,11.9,30.11,North,0,0.0,0.0,58,0.00,,,0.00,WUHU21623XXSP,2013-01-31 19:48:00,
2013-01-31 13:53:00,24.6,11.9,30.11,North,0,0.0,0.0,58,0.00,,,0.00,WUHU21623XXSP,2013-01-31 19:53:00,
2013-01-31 13:58:00,24.6,11.9,30.11,North,0,0.0,0.0,58,0.00,,,0.00,WUHU21623XXSP,2013-01-31 19:58:00,
2013-01-31 14:03:00,24.8,12.5,30.11,North,0,0.0,0.0,59,0.00,,,0.00,WUHU21623XXSP,2013-01-31 20:03:00,
2013-01-31 14:08:00,24.6,11.9,30.12,North,0,0.0,0.0,58,0.00,,,0.00,WUHU21623XXSP,2013-01-31 20:08:00,
2013-01-31 14:13:00,24.4,12.1,30.12,North,0,0.0,0.0,59,0.00,,,0.00,WUHU21623XXSP,2013-01-31 20:13:00,
2013-01-31 14:18:00,24.4,12.1,30.13,North,0,0.0,0.0,59,0.00,,,0.00,WUHU21623XXSP,2013-01-31 20:18:00,
2013-01-31 14:23:00,23.9,11.6,30.13,North,0,0.0,0.0,59,0.00,,,0.00,WUHU21623XXSP,2013-01-31 20:23:00,
2013-01-31 14:28:00,23.7,11.4,30.14,North,0,0.0,0.0,59,0.00,,,0.00,WUHU21623XXSP,2013-01-31 20:28:00,
2013-01-31 14:33:00,23.5,11.2,30.15,North,0,0.0,0.0,59,0.00,,,0.00,WUHU21623XXSP,2013-01-31 20:33:00,
2013-01-31 14:38:00,23.5,11.2,30.15,North,0,0.0,0.0,59,0.00,,,0.00,WUHU21623XXSP,2013-01-31 20:38:00,
2013-01-31 14:43:00,23.2,10.5,30.15,North,0,0.0,0.0,58,0.00,,,0.00,WUHU21623XXSP,2013-01-31 20:43:00,
2013-01-31 14:48:00,22.5,9.4,30.15,North,0,0.0,0.0,57,0.00,,,0.00,WUHU21623XXSP,2013-01-31 20:48:00,
2013-01-31 14:53:00,22.1,9.1,30.16,North,0,0.0,0.0,57,0.00,,,0.00,WUHU21623XXSP,2013-01-31 20:53:00,
2013-01-31 14:58:00,21.9,9.3,30.17,North,0,0.0,0.0,58,0.00,,,0.00,WUHU21623XXSP,2013-01-31 20:58:00,
2013-01-31 15:03:00,21.9,8.9,30.17,North,0,0.0,0.0,57,0.00,,,0.00,WUHU21623XXSP,2013-01-31 21:03:00,
2013-01-31 15:08:00,21.9,8.9,30.17,North,0,0.0,0.0,57,0.00,,,0.00,WUHU21623XXSP,2013-01-31 21:08:00,
2013-01-31 15:13:00,21.9,8.5,30.18,North,0,0.0,0.0,56,0.00,,,0.00,WUHU21623XXSP,2013-01-31 21:13:00,
2013-01-31 15:18:00,21.6,8.5,30.18,North,0,0.0,0.0,56,0.00,,,0.00,WUHU21623XXSP,2013-01-31 21:18:00,
2013-01-31 15:23:00,21.2,7.8,30.19,North,0,0.0,0.0,56,0.00,,,0.00,WUHU21623XXSP,2013-01-31 21:23:00,
2013-01-31 15:28:00,20.8,7.9,30.19,North,0,0.0,0.0,57,0.00,,,0.00,WUHU21623XXSP,2013-01-31 21:28:00,
2013-01-31 15:33:00,19.8,6.9,30.20,North,0,0.0,0.0,57,0.00,,,0.00,WUHU21623XXSP,2013-01-31 21:33:00,
2013-01-31 15:38:00,19.6,6.7,30.20,North,0,0.0,0.0,57,0.00,,,0.00,WUHU21623XXSP,2013-01-31 21:38:00,
2013-01-31 15:43:00,19.6,7.1,30.20,North,0,0.0,0.0,58,0.00,,,0.00,WUHU21623XXSP,2013-01-31 21:43:00,
2013-01-31 15:48:00,20.1,8.0,30.20,North,0,0.0,0.0,59,0.00,,,0.00,WUHU21623XXSP,2013-01-31 21:48:00,
2013-01-31 15:53:00,20.1,8.0,30.21,North,0,0.0,0.0,59,0.00,,,0.00,WUHU21623XXSP,2013-01-31 21:53:00,
2013-01-31 15:58:00,19.9,7.4,30.20,North,0,0.0,0.0,58,0.00,,,0.00,WUHU21623XXSP,2013-01-31 21:58:00,
2013-01-31 16:03:00,19.8,7.3,30.21,North,0,0.0,0.0,58,0.00,,,0.00,WUHU21623XXSP,2013-01-31 22:03:00,
2013-01-31 16:08:00,19.8,7.3,30.21,North,0,0.0,0.0,58,0.00,,,0.00,WUHU21623XXSP,2013-01-31 22:08:00,
2013-01-31 16:13:00,19.8,7.3,30.21,North,0,0.0,0.0,58,0.00,,,0.00,WUHU21623XXSP,2013-01-31 22:13:00,
2013-01-31 16:18:00,19.9,7.4,30.21,North,0,0.0,0.0,58,0.00,,,0.00,WUHU21623XXSP,2013-01-31 22:18:00,
2013-01-31 16:23:00,19.6,7.4,30.21,North,0,0.0,0.0,58,0.00,,,0.00,WUHU21623XXSP,2013-01-31 22:23:00,
2013-01-31 16:28:00,19.6,7.1,30.21,North,0,0.0,0.0,58,0.00,,,0.00,WUHU21623XXSP,2013-01-31 22:28:00,
2013-01-31 16:33:00,19.2,6.7,30.22,North,0,0.0,0.0,58,0.00,,,0.00,WUHU21623XXSP,2013-01-31 22:33:00,
2013-01-31 16:38:00,18.7,6.3,30.22,North,0,0.0,0.0,58,0.00,,,0.00,WUHU21623XXSP,2013-01-31 22:38:00,
2013-01-31 16:43:00,18.3,6.3,30.22,North,0,0.0,0.0,59,0.00,,,0.00,WUHU21623XXSP,2013-01-31 22:43:00,
2013-01-31 16:48:00,18.3,6.3,30.23,North,0,0.0,0.0,59,0.00,,,0.00,WUHU21623XXSP,2013-01-31 22:48:00,
2013-01-31 16:53:00,18.0,6.0,30.23,North,0,0.0,0.0,59,0.00,,,0.00,WUHU21623XXSP,2013-01-31 22:53:00,
2013-01-31 16:58:00,17.8,5.8,30.22,North,0,0.0,0.0,59,0.00,,,0.00,WUHU21623XXSP,2013-01-31 22:58:00,
2013-01-31 17:03:00,17.4,5.9,30.23,North,0,0.0,0.0,60,0.00,,,0.00,WUHU21623XXSP,2013-01-31 23:03:00,
2013-01-31 17:08:00,17.4,5.9,30.24,North,0,0.0,0.0,60,0.00,,,0.00,WUHU21623XXSP,2013-01-31 23:08:00,
2013-01-31 17:13:00,17.2,5.7,30.23,North,0,0.0,0.0,60,0.00,,,0.00,WUHU21623XXSP,2013-01-31 23:13:00,
2013-01-31 17:18:00,16.9,5.4,30.23,North,0,0.0,0.0,60,0.00,,,0.00,WUHU21623XXSP,2013-01-31 23:18:00,
2013-01-31 17:23:00,16.7,5.2,30.24,North,0,0.0,0.0,60,0.00,,,0.00,WUHU21623XXSP,2013-01-31 23:23:00,
2013-01-31 17:28:00,16.5,5.0,30.24,North,0,0.0,0.0,60,0.00,,,0.00,WUHU21623XXSP,2013-01-31 23:28:00,
2013-01-31 17:33:00,16.3,5.2,30.24,North,0,0.0,0.0,61,0.00,,,0.00,WUHU21623XXSP,2013-01-31 23:33:00,
2013-01-31 17:38:00,16.0,4.8,30.25,North,0,0.0,0.0,61,0.00,,,0.00,WUHU21623XXSP,2013-01-31 23:38:00,
2013-01-31 17:43:00,15.8,4.3,30.25,North,0,0.0,0.0,60,0.00,,,0.00,WUHU21623XXSP,2013-01-31 23:43:00,
2013-01-31 17:48:00,15.6,4.5,30.26,North,0,0.0,0.0,61,0.00,,,0.00,WUHU21623XXSP,2013-01-31 23:48:00,
2013-01-31 17:53:00,15.6,4.5,30.26,North,0,0.0,0.0,61,0.00,,,0.00,WUHU21623XXSP,2013-01-31 23:53:00,
2013-01-31 17:58:00,15.4,4.3,30.26,North,0,0.0,0.0,61,0.00,,,0.00,WUHU21623XXSP,2013-01-31 23:58:00,
2013-01-31 18:03:00,15.3,4.1,30.27,North,0,0.0,0.0,61,0.00,,,0.00,WUHU21623XXSP,2013-02-01 00:03:00,
2013-01-31 18:08:00,15.1,4.0,30.27,North,0,0.0,0.0,61,0.00,,,0.00,WUHU21623XXSP,2013-02-01 00:08:00,
2013-01-31 18:13:00,15.1,4.0,30.27,North,0,0.0,0.0,61,0.00,,,0.00,WUHU21623XXSP,2013-02-01 00:13:00,
2013-01-31 18:18:00,14.9,4.2,30.28,North,0,0.0,0.0,62,0.00,,,0.00,WUHU21623XXSP,2013-02-01 00:18:00,
2013-01-31 18:23:00,14.7,4.0,30.28,North,0,0.0,0.0,62,0.00,,,0.00,WUHU21623XXSP,2013-02-01 00:23:00,
2013-01-31 18:28:00,14.7,4.0,30.29,North,0,0.0,0.0,62,0.00,,,0.00,WUHU21623XXSP,2013-02-01 00:28:00,
2013-01-31 18:33:00,14.7,4.3,30.29,North,0,0.0,0.0,63,0.00,,,0.00,WUHU21623XXSP,2013-02-01 00:33:00,
2013-01-31 18:39:00,14.7,4.3,30.29,North,0,0.0,0.0,63,0.00,,,0.00,WUHU21623XXSP,2013-02-01 00:39:00,
2013-01-31 18:44:00,14.7,4.3,30.30,North,0,0.0,0.0,63,0.00,,,0.00,WUHU21623XXSP,2013-02-01 00:44:00,
2013-01-31 18:49:00,14.5,4.3,30.30,North,0,0.0,0.0,62,0.00,,,0.00,WUHU21623XXSP,2013-02-01 00:49:00,
2013-01-31 18:54:00,14.4,3.7,30.31,North,0,0.0,0.0,61,0.00,,,0.00,WUHU21623XXSP,2013-02-01 00:54:00,
2013-01-31 18:59:00,13.6,2.6,30.31,North,0,0.0,0.0,61,0.00,,,0.00,WUHU21623XXSP,2013-02-01 00:59:00,
2013-01-31 19:04:00,13.6,2.6,30.31,North,0,0.0,0.0,61,0.00,,,0.00,WUHU21623XXSP,2013-02-01 01:04:00,
2013-01-31 19:09:00,13.3,2.3,30.32,North,0,0.0,0.0,61,0.00,,,0.00,WUHU21623XXSP,2013-02-01 01:09:00,
2013-01-31 19:14:00,12.9,1.9,30.32,North,0,0.0,0.0,61,0.00,,,0.00,WUHU21623XXSP,2013-02-01 01:14:00,
2013-01-31 19:19:00,12.7,1.7,30.32,North,0,0.0,0.0,61,0.00,,,0.00,WUHU21623XXSP,2013-02-01 01:19:00,
2013-01-31 19:24:00,12.7,1.7,30.33,North,0,0.0,0.0,61,0.00,,,0.00,WUHU21623XXSP,2013-02-01 01:24:00,
2013-01-31 19:29:00,12.6,1.9,30.33,North,0,0.0,0.0,62,0.00,,,0.00,WUHU21623XXSP,2013-02-01 01:29:00,
2013-01-31 19:34:00,12.4,1.4,30.33,North,0,0.0,0.0,61,0.00,,,0.00,WUHU21623XXSP,2013-02-01 01:34:00,
2013-01-31 19:39:00,12.2,1.2,30.34,North,0,0.0,0.0,61,0.00,,,0.00,WUHU21623XXSP,2013-02-01 01:39:00,
2013-01-31 19:44:00,12.0,1.0,30.34,North,0,0.0,0.0,61,0.00,,,0.00,WUHU21623XXSP,2013-02-01 01:44:00,
2013-01-31 19:49:00,12.0,1.0,30.34,North,0,0.0,0.0,61,0.00,,,0.00,WUHU21623XXSP,2013-02-01 01:49:00,
2013-01-31 19:54:00,11.8,0.9,30.34,North,0,0.0,0.0,61,0.00,,,0.00,WUHU21623XXSP,2013-02-01 01:54:00,
2013-01-31 19:59:00,11.7,0.7,30.34,North,0,0.0,0.0,61,0.00,,,0.00,WUHU21623XXSP,2013-02-01 01:59:00,
2013-01-31 20:04:00,11.5,0.9,30.34,North,0,0.0,0.0,62,0.00,,,0.00,WUHU21623XXSP,2013-02-01 02:04:00,
2013-01-31 20:09:00,11.5,0.9,30.35,North,0,0.0,0.0,62,0.00,,,0.00,WUHU21623XXSP,2013-02-01 02:09:00,
2013-01-31 20:14:00,11.5,0.9,30.35,North,0,0.0,0.0,62,0.00,,,0.00,WUHU21623XXSP,2013-02-01 02:14:00,
2013-01-31 20:19:00,11.3,0.7,30.35,North,0,0.0,0.0,62,0.00,,,0.00,WUHU21623XXSP,2013-02-01 02:19:00,
2013-01-31 20:24:00,11.3,1.0,30.36,North,0,0.0,0.0,63,0.00,,,0.00,WUHU21623XXSP,2013-02-01 02:24:00,
2013-01-31 20:29:00,11.1,0.9,30.36,North,0,0.0,0.0,63,0.00,,,0.00,WUHU21623XXSP,2013-02-01 02:29:00,
2013-01-31 20:34:00,11.1,1.0,30.37,North,0,0.0,0.0,63,0.00,,,0.00,WUHU21623XXSP,2013-02-01 02:34:00,
2013-01-31 20:39:00,11.1,0.9,30.37,North,0,0.0,0.0,63,0.00,,,0.00,WUHU21623XXSP,2013-02-01 02:39:00,
2013-01-31 20:44:00,11.1,0.9,30.37,North,0,0.0,0.0,63,0.00,,,0.00,WUHU21623XXSP,2013-02-01 02:44:00,
2013-01-31 20:49:00,10.9,0.7,30.38,North,0,0.0,0.0,63,0.00,,,0.00,WUHU21623XXSP,2013-02-01 02:49:00,
2013-01-31 20:54:00,10.8,0.5,30.38,North,0,0.0,0.0,63,0.00,,,0.00,WUHU21623XXSP,2013-02-01 02:54:00,
2013-01-31 20:59:00,10.6,0.4,30.38,North,0,0.0,0.0,63,0.00,,,0.00,WUHU21623XXSP,2013-02-01 02:59:00,
2013-01-31 21:04:00,10.6,0.4,30.38,North,0,0.0,0.0,63,0.00,,,0.00,WUHU21623XXSP,2013-02-01 03:04:00,
2013-01-31 21:09:00,10.6,0.4,30.38,North,0,0.0,0.0,63,0.00,,,0.00,WUHU21623XXSP,2013-02-01 03:09:00,
2013-01-31 21:14:00,10.2,-0.3,30.38,North,0,0.0,0.0,62,0.00,,,0.00,WUHU21623XXSP,2013-02-01 03:14:00,
2013-01-31 21:19:00,10.2,-0.3,30.38,North,0,0.0,0.0,62,0.00,,,0.00,WUHU21623XXSP,2013-02-01 03:19:00,
2013-01-31 21:24:00,10.2,-0.3,30.38,North,0,0.0,0.0,62,0.00,,,0.00,WUHU21623XXSP,2013-02-01 03:24:00,
2013-01-31 21:29:00,10.0,-0.5,30.38,North,0,0.0,0.0,62,0.00,,,0.00,WUHU21623XXSP,2013-02-01 03:29:00,
2013-01-31 21:34:00,10.0,-0.1,30.39,North,0,0.0,0.0,63,0.00,,,0.00,WUHU21623XXSP,2013-02-01 03:34:00,
2013-01-31 21:39:00,10.0,-0.1,30.39,North,0,0.0,0.0,63,0.00,,,0.00,WUHU21623XXSP,2013-02-01 03:39:00,
2013-01-31 21:44:00,10.0,-0.1,30.40,North,0,0.0,0.0,63,0.00,,,0.00,WUHU21623XXSP,2013-02-01 03:44:00,
2013-01-31 21:49:00,10.0,-0.1,30.40,North,0,0.0,0.0,63,0.00,,,0.00,WUHU21623XXSP,2013-02-01 03:49:00,
2013-01-31 21:54:00,10.0,0.2,30.40,North,0,0.0,0.0,64,0.00,,,0.00,WUHU21623XXSP,2013-02-01 03:54:00,
2013-01-31 21:59:00,9.9,0.0,30.40,North,0,0.0,0.0,64,0.00,,,0.00,WUHU21623XXSP,2013-02-01 03:59:00,
2013-01-31 22:04:00,9.9,0.0,30.40,North,0,0.0,0.0,64,0.00,,,0.00,WUHU21623XXSP,2013-02-01 04:04:00,
2013-01-31 22:09:00,9.7,-0.2,30.40,North,0,0.0,0.0,64,0.00,,,0.00,WUHU21623XXSP,2013-02-01 04:09:00,
2013-01-31 22:14:00,9.7,-0.2,30.41,North,0,0.0,0.0,64,0.00,,,0.00,WUHU21623XXSP,2013-02-01 04:14:00,
2013-01-31 22:19:00,9.7,-0.2,30.41,North,0,0.0,0.0,64,0.00,,,0.00,WUHU21623XXSP,2013-02-01 04:19:00,
2013-01-31 22:24:00,9.7,-0.2,30.41,North,0,0.0,0.0,64,0.00,,,0.00,WUHU21623XXSP,2013-02-01 04:24:00,
2013-01-31 22:29:00,9.7,-0.2,30.42,North,0,0.0,0.0,64,0.00,,,0.00,WUHU21623XXSP,2013-02-01 04:29:00,
2013-01-31 22:34:00,9.7,-0.2,30.42,North,0,0.0,0.0,64,0.00,,,0.00,WUHU21623XXSP,2013-02-01 04:34:00,
2013-01-31 22:39:00,9.7,-0.2,30.42,North,0,0.0,0.0,64,0.00,,,0.00,WUHU21623XXSP,2013-02-01 04:39:00,
2013-01-31 22:44:00,9.7,-0.2,30.43,North,0,0.0,0.0,64,0.00,,,0.00,WUHU21623XXSP,2013-02-01 04:44:00,
2013-01-31 22:49:00,9.7,-0.2,30.43,North,0,0.0,0.0,64,0.00,,,0.00,WUHU21623XXSP,2013-02-01 04:49:00,
2013-01-31 22:54:00,9.5,-0.2,30.43,North,0,0.0,0.0,64,0.00,,,0.00,WUHU21623XXSP,2013-02-01 04:54:00,
2013-01-31 22:59:00,9.5,-0.3,30.43,North,0,0.0,0.0,64,0.00,,,0.00,WUHU21623XXSP,2013-02-01 04:59:00,
2013-01-31 23:01:00,9.5,-0.3,30.43,North,0,0.0,0.0,64,0.00,,,0.00,WUHU21623XXSP,2013-02-01 05:01:00,
2013-01-31 23:04:00,9.5,-0.3,30.43,North,0,0.0,0.0,64,0.00,,,0.00,WUHU21623XXSP,2013-02-01 05:04:00,
2013-01-31 23:06:00,9.5,-0.3,30.43,North,0,0.0,0.0,64,0.00,,,0.00,WUHU21623XXSP,2013-02-01 05:06:00,
2013-01-31 23:09:00,9.3,-0.5,30.44,North,0,0.0,0.0,64,0.00,,,0.00,WUHU21623XXSP,2013-02-01 05:09:00,
2013-01-31 23:14:00,9.3,-0.5,30.44,North,0,0.0,0.0,64,0.00,,,0.00,WUHU21623XXSP,2013-02-01 05:14:00,
2013-01-31 23:19:00,9.3,-0.5,30.44,North,0,0.0,0.0,64,0.00,,,0.00,WUHU21623XXSP,2013-02-01 05:19:00,
2013-01-31 23:24:00,9.1,-0.7,30.44,North,0,0.0,0.0,64,0.00,,,0.00,WUHU21623XXSP,2013-02-01 05:24:00,
2013-01-31 23:29:00,9.1,-0.7,30.43,North,0,0.0,0.0,64,0.00,,,0.00,WUHU21623XXSP,2013-02-01 05:29:00,
2013-01-31 23:34:00,9.1,-0.7,30.44,North,0,0.0,0.0,64,0.00,,,0.00,WUHU21623XXSP,2013-02-01 05:34:00,
2013-01-31 23:39:00,9.1,-0.7,30.44,North,0,0.0,0.0,64,0.00,,,0.00,WUHU21623XXSP,2013-02-01 05:39:00,
2013-01-31 23:44:00,9.1,-0.7,30.44,North,0,0.0,0.0,64,0.00,,,0.00,WUHU21623XXSP,2013-02-01 05:44:00,
2013-01-31 23:49:00,9.1,-0.7,30.44,North,0,0.0,0.0,64,0.00,,,0.00,WUHU21623XXSP,2013-02-01 05:49:00,
2013-01-31 23:54:00,9.1,-0.3,30.44,North,0,0.0,0.0,65,0.00,,,0.00,WUHU21623XXSP,2013-02-01 05:54:00,
2013-01-31 23:59:00,9.1,-0.3,30.44,North,0,0.0,0.0,65,0.00,,,0.00,WUHU21623XXSP,2013-02-01 05:59:00,